Ashley, Illinois
Current Conditions -  °F | °C
As of 5:55 AM on Thursday 29 Jan 2015 (Local Time) from KENL Reporting Station
Clear Clear  
Wind Chill: 41°   Ceiling: Unl
Heat Index: 47°   Visibility: 10mi
Dew Point: 37°   Wind: 14mph
Humidity: 69%   Direction: 240°WSW
Pressure: 29.82"   Gusts: NA
Location:  38.33°N, 89.19°W
Report Text: KENL 291155Z AUTO 24012KT 10SM CLR 08/03 A2982 RMK AO2 T00830030 10095 20066
Loading
Personal Weather Stations






























Interactive Weather Map New forecast layout! Learn more

10-Day Weather Forecast

Advertisements
Track Severe Weather on mobile